sensor_id;sensor_type;location;lat;lon;timestamp;pressure;altitude;pressure_sealevel;temperature;humidity
35989;BME280;22064;42.672;23.282;2023-02-21T00:02:39;95043.22;;;3.98;100.00
35989;BME280;22064;42.672;23.282;2023-02-21T00:05:23;95049.53;;;3.95;100.00
35989;BME280;22064;42.672;23.282;2023-02-21T00:08:08;95034.44;;;3.85;100.00
35989;BME280;22064;42.672;23.282;2023-02-21T00:10:52;95022.94;;;3.81;100.00
35989;BME280;22064;42.672;23.282;2023-02-21T00:13:37;95040.81;;;3.89;100.00
35989;BME280;22064;42.672;23.282;2023-02-21T00:16:21;95045.91;;;3.83;100.00
35989;BME280;22064;42.672;23.282;2023-02-21T00:19:06;95043.94;;;3.85;100.00
35989;BME280;22064;42.672;23.282;2023-02-21T00:21:51;95037.31;;;3.69;100.00
35989;BME280;22064;42.672;23.282;2023-02-21T00:24:35;95029.22;;;3.72;100.00
35989;BME280;22064;42.672;23.282;2023-02-21T00:27:20;95021.56;;;3.51;100.00
35989;BME280;22064;42.672;23.282;2023-02-21T00:30:05;95038.72;;;3.72;100.00
35989;BME280;22064;42.672;23.282;2023-02-21T00:32:50;95027.41;;;3.66;100.00
35989;BME280;22064;42.672;23.282;2023-02-21T00:35:36;95015.72;;;3.70;100.00
35989;BME280;22064;42.672;23.282;2023-02-21T00:38:20;95026.59;;;3.65;100.00
35989;BME280;22064;42.672;23.282;2023-02-21T00:41:04;95017.72;;;3.68;100.00
35989;BME280;22064;42.672;23.282;2023-02-21T00:43:49;95020.28;;;3.68;100.00
35989;BME280;22064;42.672;23.282;2023-02-21T00:46:34;95032.41;;;3.74;100.00
35989;BME280;22064;42.672;23.282;2023-02-21T00:49:18;95032.03;;;3.77;100.00
35989;BME280;22064;42.672;23.282;2023-02-21T00:52:03;95018.56;;;3.82;100.00
35989;BME280;22064;42.672;23.282;2023-02-21T00:54:47;95017.50;;;3.69;100.00
35989;BME280;22064;42.672;23.282;2023-02-21T00:57:31;95004.78;;;3.61;100.00
35989;BME280;22064;42.672;23.282;2023-02-21T01:00:19;95011.13;;;3.59;100.00
35989;BME280;22064;42.672;23.282;2023-02-21T01:03:04;95000.59;;;3.54;100.00
35989;BME280;22064;42.672;23.282;2023-02-21T01:05:49;94997.22;;;3.53;100.00
35989;BME280;22064;42.672;23.282;2023-02-21T01:08:34;94987.56;;;3.62;100.00
35989;BME280;22064;42.672;23.282;2023-02-21T01:11:20;94974.84;;;3.54;100.00
35989;BME280;22064;42.672;23.282;2023-02-21T01:14:05;94973.16;;;3.39;100.00
35989;BME280;22064;42.672;23.282;2023-02-21T01:16:51;94975.59;;;3.47;100.00
35989;BME280;22064;42.672;23.282;2023-02-21T01:19:35;94964.88;;;3.44;100.00
35989;BME280;22064;42.672;23.282;2023-02-21T01:22:19;94959.75;;;3.51;100.00
35989;BME280;22064;42.672;23.282;2023-02-21T01:25:04;94964.69;;;3.45;100.00
35989;BME280;22064;42.672;23.282;2023-02-21T01:27:49;94970.31;;;3.56;100.00
35989;BME280;22064;42.672;23.282;2023-02-21T01:30:34;94960.56;;;3.51;100.00
35989;BME280;22064;42.672;23.282;2023-02-21T01:33:19;94957.00;;;3.52;100.00
35989;BME280;22064;42.672;23.282;2023-02-21T01:36:04;94961.78;;;3.55;100.00
35989;BME280;22064;42.672;23.282;2023-02-21T01:38:49;94963.13;;;3.51;100.00
35989;BME280;22064;42.672;23.282;2023-02-21T01:41:35;94955.78;;;3.48;100.00
35989;BME280;22064;42.672;23.282;2023-02-21T01:44:38;94959.75;;;3.51;100.00
35989;BME280;22064;42.672;23.282;2023-02-21T01:47:23;94958.16;;;3.43;100.00
35989;BME280;22064;42.672;23.282;2023-02-21T01:50:28;94960.16;;;3.47;100.00
35989;BME280;22064;42.672;23.282;2023-02-21T01:53:24;94950.63;;;3.48;100.00
35989;BME280;22064;42.672;23.282;2023-02-21T01:56:09;94937.75;;;3.48;100.00
35989;BME280;22064;42.672;23.282;2023-02-21T01:58:58;94942.53;;;3.51;100.00
35989;BME280;22064;42.672;23.282;2023-02-21T02:04:35;94942.72;;;3.43;100.00
35989;BME280;22064;42.672;23.282;2023-02-21T02:07:19;94934.00;;;3.44;100.00
35989;BME280;22064;42.672;23.282;2023-02-21T02:10:06;94926.44;;;3.42;100.00
35989;BME280;22064;42.672;23.282;2023-02-21T02:25:03;94910.22;;;3.42;100.00
35989;BME280;22064;42.672;23.282;2023-02-21T02:27:49;94926.28;;;3.51;100.00
35989;BME280;22064;42.672;23.282;2023-02-21T02:35:43;94915.63;;;3.54;100.00
35989;BME280;22064;42.672;23.282;2023-02-21T02:38:20;94895.56;;;3.42;100.00
35989;BME280;22064;42.672;23.282;2023-02-21T02:41:13;94910.22;;;3.48;100.00
35989;BME280;22064;42.672;23.282;2023-02-21T02:44:07;94927.44;;;3.41;100.00
35989;BME280;22064;42.672;23.282;2023-02-21T02:46:37;94897.53;;;3.40;100.00
35989;BME280;22064;42.672;23.282;2023-02-21T02:49:18;94916.00;;;3.51;100.00
35989;BME280;22064;42.672;23.282;2023-02-21T02:51:47;94904.09;;;3.43;100.00
35989;BME280;22064;42.672;23.282;2023-02-21T02:54:13;94904.88;;;3.43;100.00
35989;BME280;22064;42.672;23.282;2023-02-21T02:56:39;94918.34;;;3.45;100.00
35989;BME280;22064;42.672;23.282;2023-02-21T02:59:12;94918.78;;;3.49;100.00
35989;BME280;22064;42.672;23.282;2023-02-21T03:04:45;94896.38;;;3.43;100.00
35989;BME280;22064;42.672;23.282;2023-02-21T03:10:11;94914.59;;;3.48;100.00
35989;BME280;22064;42.672;23.282;2023-02-21T03:15:37;94908.22;;;3.37;100.00
35989;BME280;22064;42.672;23.282;2023-02-21T03:18:13;94894.72;;;3.35;100.00
35989;BME280;22064;42.672;23.282;2023-02-21T03:20:42;94897.31;;;3.35;100.00
35989;BME280;22064;42.672;23.282;2023-02-21T03:23:12;94901.06;;;3.39;100.00
35989;BME280;22064;42.672;23.282;2023-02-21T03:25:41;94892.56;;;3.39;100.00
35989;BME280;22064;42.672;23.282;2023-02-21T03:28:10;94893.19;;;3.41;100.00
35989;BME280;22064;42.672;23.282;2023-02-21T03:30:40;94896.50;;;3.35;100.00
35989;BME280;22064;42.672;23.282;2023-02-21T03:33:08;94872.34;;;3.36;100.00
35989;BME280;22064;42.672;23.282;2023-02-21T03:35:34;94876.94;;;3.40;100.00
35989;BME280;22064;42.672;23.282;2023-02-21T03:38:00;94893.72;;;3.30;100.00
35989;BME280;22064;42.672;23.282;2023-02-21T03:40:30;94889.91;;;3.19;100.00
35989;BME280;22064;42.672;23.282;2023-02-21T03:42:59;94883.34;;;3.16;100.00
35989;BME280;22064;42.672;23.282;2023-02-21T03:45:28;94866.13;;;3.17;100.00
35989;BME280;22064;42.672;23.282;2023-02-21T03:48:14;94881.94;;;3.14;100.00
35989;BME280;22064;42.672;23.282;2023-02-21T03:50:40;94880.38;;;3.13;100.00
35989;BME280;22064;42.672;23.282;2023-02-21T03:53:06;94882.59;;;3.22;100.00
35989;BME280;22064;42.672;23.282;2023-02-21T03:55:32;94899.31;;;3.05;100.00
35989;BME280;22064;42.672;23.282;2023-02-21T03:58:02;94904.44;;;3.05;100.00
35989;BME280;22064;42.672;23.282;2023-02-21T04:00:29;94899.25;;;2.98;100.00
35989;BME280;22064;42.672;23.282;2023-02-21T04:02:55;94891.38;;;3.00;100.00
35989;BME280;22064;42.672;23.282;2023-02-21T04:05:31;94893.97;;;3.07;100.00
35989;BME280;22064;42.672;23.282;2023-02-21T04:07:57;94900.53;;;3.09;100.00
35989;BME280;22064;42.672;23.282;2023-02-21T04:10:23;94905.44;;;3.04;100.00
35989;BME280;22064;42.672;23.282;2023-02-21T04:12:49;94907.84;;;3.06;100.00
35989;BME280;22064;42.672;23.282;2023-02-21T04:15:15;94910.59;;;3.04;100.00
35989;BME280;22064;42.672;23.282;2023-02-21T04:17:41;94898.09;;;3.01;100.00
35989;BME280;22064;42.672;23.282;2023-02-21T04:20:08;94925.84;;;3.06;100.00
35989;BME280;22064;42.672;23.282;2023-02-21T04:22:40;94922.66;;;3.04;100.00
35989;BME280;22064;42.672;23.282;2023-02-21T04:25:06;94902.91;;;3.11;100.00
35989;BME280;22064;42.672;23.282;2023-02-21T04:27:38;94929.28;;;3.19;100.00
35989;BME280;22064;42.672;23.282;2023-02-21T04:30:04;94944.72;;;3.19;100.00
35989;BME280;22064;42.672;23.282;2023-02-21T04:32:30;94924.84;;;3.07;100.00
35989;BME280;22064;42.672;23.282;2023-02-21T04:34:58;94932.44;;;3.15;100.00
35989;BME280;22064;42.672;23.282;2023-02-21T04:37:24;94940.34;;;3.13;100.00
35989;BME280;22064;42.672;23.282;2023-02-21T04:39:51;94948.09;;;3.20;100.00
35989;BME280;22064;42.672;23.282;2023-02-21T04:42:19;94935.94;;;3.07;100.00
35989;BME280;22064;42.672;23.282;2023-02-21T04:44:45;94945.84;;;3.10;100.00
35989;BME280;22064;42.672;23.282;2023-02-21T04:47:11;94938.88;;;3.04;100.00
35989;BME280;22064;42.672;23.282;2023-02-21T04:49:37;94946.84;;;3.09;100.00
35989;BME280;22064;42.672;23.282;2023-02-21T04:52:03;94945.19;;;3.01;100.00
35989;BME280;22064;42.672;23.282;2023-02-21T04:54:29;94928.63;;;3.11;100.00
35989;BME280;22064;42.672;23.282;2023-02-21T04:56:55;94935.16;;;3.07;100.00
35989;BME280;22064;42.672;23.282;2023-02-21T04:59:20;94917.50;;;3.04;100.00
35989;BME280;22064;42.672;23.282;2023-02-21T05:01:46;94926.59;;;2.99;100.00
35989;BME280;22064;42.672;23.282;2023-02-21T05:04:12;94924.25;;;3.05;100.00
35989;BME280;22064;42.672;23.282;2023-02-21T05:06:38;94921.28;;;3.08;100.00
35989;BME280;22064;42.672;23.282;2023-02-21T05:09:04;94914.44;;;3.15;100.00
35989;BME280;22064;42.672;23.282;2023-02-21T05:11:33;94898.50;;;3.05;100.00
35989;BME280;22064;42.672;23.282;2023-02-21T05:14:02;94894.13;;;2.98;100.00
35989;BME280;22064;42.672;23.282;2023-02-21T05:16:28;94889.97;;;2.97;100.00
35989;BME280;22064;42.672;23.282;2023-02-21T05:18:54;94898.38;;;3.13;100.00
35989;BME280;22064;42.672;23.282;2023-02-21T05:21:20;94888.09;;;3.13;100.00
35989;BME280;22064;42.672;23.282;2023-02-21T05:23:46;94876.75;;;3.07;100.00
35989;BME280;22064;42.672;23.282;2023-02-21T05:26:26;94886.53;;;3.18;100.00
35989;BME280;22064;42.672;23.282;2023-02-21T05:28:52;94879.22;;;3.22;100.00
35989;BME280;22064;42.672;23.282;2023-02-21T05:31:19;94888.94;;;3.27;100.00
35989;BME280;22064;42.672;23.282;2023-02-21T05:33:46;94895.69;;;3.28;100.00
35989;BME280;22064;42.672;23.282;2023-02-21T05:36:12;94884.78;;;3.26;100.00
35989;BME280;22064;42.672;23.282;2023-02-21T05:38:49;94893.75;;;3.36;100.00
35989;BME280;22064;42.672;23.282;2023-02-21T05:41:16;94907.88;;;3.54;100.00
35989;BME280;22064;42.672;23.282;2023-02-21T05:43:44;94902.00;;;3.66;100.00
35989;BME280;22064;42.672;23.282;2023-02-21T05:46:18;94898.66;;;3.73;100.00
35989;BME280;22064;42.672;23.282;2023-02-21T05:48:44;94899.28;;;3.75;100.00
35989;BME280;22064;42.672;23.282;2023-02-21T05:51:10;94907.00;;;3.81;100.00
35989;BME280;22064;42.672;23.282;2023-02-21T05:53:36;94913.97;;;3.87;100.00
35989;BME280;22064;42.672;23.282;2023-02-21T05:56:02;94912.59;;;3.91;100.00
35989;BME280;22064;42.672;23.282;2023-02-21T05:58:27;94917.75;;;3.91;100.00
35989;BME280;22064;42.672;23.282;2023-02-21T06:00:54;94921.34;;;4.04;100.00
35989;BME280;22064;42.672;23.282;2023-02-21T06:03:20;94937.06;;;4.15;100.00
35989;BME280;22064;42.672;23.282;2023-02-21T06:05:46;94933.47;;;4.16;100.00
35989;BME280;22064;42.672;23.282;2023-02-21T06:08:11;94924.59;;;4.32;100.00
35989;BME280;22064;42.672;23.282;2023-02-21T06:10:37;94938.69;;;4.36;100.00
35989;BME280;22064;42.672;23.282;2023-02-21T06:13:03;94909.56;;;4.43;100.00
35989;BME280;22064;42.672;23.282;2023-02-21T06:15:29;94935.53;;;4.61;100.00
35989;BME280;22064;42.672;23.282;2023-02-21T06:17:55;94931.97;;;4.62;100.00
35989;BME280;22064;42.672;23.282;2023-02-21T06:20:21;94921.28;;;4.65;100.00
35989;BME280;22064;42.672;23.282;2023-02-21T06:22:47;94936.75;;;4.85;100.00
35989;BME280;22064;42.672;23.282;2023-02-21T06:25:14;94938.13;;;5.01;100.00
35989;BME280;22064;42.672;23.282;2023-02-21T06:27:40;94941.91;;;5.05;100.00
35989;BME280;22064;42.672;23.282;2023-02-21T06:30:06;94937.56;;;4.99;100.00
35989;BME280;22064;42.672;23.282;2023-02-21T06:32:32;94945.47;;;5.10;100.00
35989;BME280;22064;42.672;23.282;2023-02-21T06:34:58;94942.47;;;5.33;100.00
35989;BME280;22064;42.672;23.282;2023-02-21T06:37:24;94944.44;;;5.38;100.00
35989;BME280;22064;42.672;23.282;2023-02-21T06:39:50;94937.84;;;5.55;100.00
35989;BME280;22064;42.672;23.282;2023-02-21T06:42:17;94942.16;;;5.75;100.00
35989;BME280;22064;42.672;23.282;2023-02-21T06:44:47;94939.41;;;5.76;100.00
35989;BME280;22064;42.672;23.282;2023-02-21T06:47:14;94945.75;;;5.74;100.00
35989;BME280;22064;42.672;23.282;2023-02-21T06:49:40;94943.34;;;5.79;100.00
35989;BME280;22064;42.672;23.282;2023-02-21T06:52:06;94922.66;;;5.79;100.00
35989;BME280;22064;42.672;23.282;2023-02-21T06:54:32;94941.13;;;5.96;100.00
35989;BME280;22064;42.672;23.282;2023-02-21T06:56:58;94950.59;;;6.15;100.00
35989;BME280;22064;42.672;23.282;2023-02-21T06:59:29;94938.03;;;6.19;100.00
35989;BME280;22064;42.672;23.282;2023-02-21T07:01:55;94944.19;;;6.24;100.00
35989;BME280;22064;42.672;23.282;2023-02-21T07:04:22;94936.41;;;6.24;100.00
35989;BME280;22064;42.672;23.282;2023-02-21T07:06:48;94940.69;;;6.44;100.00
35989;BME280;22064;42.672;23.282;2023-02-21T07:09:14;94934.63;;;6.57;100.00
35989;BME280;22064;42.672;23.282;2023-02-21T07:11:40;94946.81;;;6.50;100.00
35989;BME280;22064;42.672;23.282;2023-02-21T07:14:06;94934.06;;;6.55;100.00
35989;BME280;22064;42.672;23.282;2023-02-21T07:16:32;94928.66;;;6.56;100.00
35989;BME280;22064;42.672;23.282;2023-02-21T07:18:58;94922.28;;;6.59;100.00
35989;BME280;22064;42.672;23.282;2023-02-21T07:21:25;94933.13;;;6.74;100.00
35989;BME280;22064;42.672;23.282;2023-02-21T07:23:51;94923.38;;;6.76;100.00
35989;BME280;22064;42.672;23.282;2023-02-21T07:26:17;94923.25;;;6.89;100.00
35989;BME280;22064;42.672;23.282;2023-02-21T07:28:43;94928.81;;;6.93;100.00
35989;BME280;22064;42.672;23.282;2023-02-21T07:31:10;94934.66;;;7.07;100.00
35989;BME280;22064;42.672;23.282;2023-02-21T07:33:36;94935.44;;;7.32;100.00
35989;BME280;22064;42.672;23.282;2023-02-21T07:36:02;94926.22;;;7.36;100.00
35989;BME280;22064;42.672;23.282;2023-02-21T07:38:29;94915.66;;;7.56;100.00
35989;BME280;22064;42.672;23.282;2023-02-21T07:41:00;94909.19;;;7.66;100.00
35989;BME280;22064;42.672;23.282;2023-02-21T07:43:28;94919.19;;;7.80;97.19
35989;BME280;22064;42.672;23.282;2023-02-21T07:45:55;94922.72;;;7.86;95.23
35989;BME280;22064;42.672;23.282;2023-02-21T07:48:21;94903.88;;;7.79;95.67
35989;BME280;22064;42.672;23.282;2023-02-21T07:50:47;94923.94;;;7.83;95.34
35989;BME280;22064;42.672;23.282;2023-02-21T07:53:14;94905.94;;;7.89;94.30
35989;BME280;22064;42.672;23.282;2023-02-21T07:55:40;94914.06;;;7.92;94.92
35989;BME280;22064;42.672;23.282;2023-02-21T07:58:06;94891.81;;;7.84;94.52
35989;BME280;22064;42.672;23.282;2023-02-21T08:00:32;94874.19;;;7.75;96.19
35989;BME280;22064;42.672;23.282;2023-02-21T08:02:59;94892.34;;;7.56;97.61
35989;BME280;22064;42.672;23.282;2023-02-21T08:05:25;94898.09;;;7.58;98.82
35989;BME280;22064;42.672;23.282;2023-02-21T08:07:51;94893.63;;;7.66;98.57
35989;BME280;22064;42.672;23.282;2023-02-21T08:10:23;94882.09;;;7.80;96.35
35989;BME280;22064;42.672;23.282;2023-02-21T08:12:50;94893.09;;;7.94;95.07
35989;BME280;22064;42.672;23.282;2023-02-21T08:15:16;94900.53;;;7.90;93.81
35989;BME280;22064;42.672;23.282;2023-02-21T08:17:42;94904.25;;;7.94;95.77
35989;BME280;22064;42.672;23.282;2023-02-21T08:20:08;94905.59;;;8.15;92.46
35989;BME280;22064;42.672;23.282;2023-02-21T08:22:37;94905.50;;;8.22;92.01
35989;BME280;22064;42.672;23.282;2023-02-21T08:25:03;94894.47;;;8.26;89.55
35989;BME280;22064;42.672;23.282;2023-02-21T08:27:29;94904.03;;;8.14;91.47
35989;BME280;22064;42.672;23.282;2023-02-21T08:29:55;94898.47;;;8.10;92.03
35989;BME280;22064;42.672;23.282;2023-02-21T08:32:21;94892.84;;;8.14;93.08
35989;BME280;22064;42.672;23.282;2023-02-21T08:34:48;94886.78;;;8.20;92.21
35989;BME280;22064;42.672;23.282;2023-02-21T08:37:14;94882.50;;;8.25;90.80
35989;BME280;22064;42.672;23.282;2023-02-21T08:39:51;94879.25;;;8.30;88.90
35989;BME280;22064;42.672;23.282;2023-02-21T08:42:18;94885.91;;;8.26;89.79
35989;BME280;22064;42.672;23.282;2023-02-21T08:44:45;94891.78;;;8.33;89.09
35989;BME280;22064;42.672;23.282;2023-02-21T08:47:12;94896.19;;;8.32;87.45
35989;BME280;22064;42.672;23.282;2023-02-21T08:49:38;94880.38;;;8.34;87.66
35989;BME280;22064;42.672;23.282;2023-02-21T08:52:07;94875.13;;;8.41;86.59
35989;BME280;22064;42.672;23.282;2023-02-21T08:54:33;94880.94;;;8.54;85.40
35989;BME280;22064;42.672;23.282;2023-02-21T08:57:00;94872.16;;;8.67;83.74
35989;BME280;22064;42.672;23.282;2023-02-21T08:59:26;94873.53;;;8.70;83.02
35989;BME280;22064;42.672;23.282;2023-02-21T09:01:53;94886.84;;;8.73;82.58
35989;BME280;22064;42.672;23.282;2023-02-21T09:04:19;94873.53;;;8.70;82.23
35989;BME280;22064;42.672;23.282;2023-02-21T09:06:44;94873.28;;;8.71;82.25
35989;BME280;22064;42.672;23.282;2023-02-21T09:09:10;94863.81;;;8.77;81.74
35989;BME280;22064;42.672;23.282;2023-02-21T09:11:36;94864.28;;;8.86;79.75
35989;BME280;22064;42.672;23.282;2023-02-21T09:14:02;94862.44;;;8.74;80.35
35989;BME280;22064;42.672;23.282;2023-02-21T09:16:31;94873.53;;;8.93;80.89
35989;BME280;22064;42.672;23.282;2023-02-21T09:18:58;94875.00;;;9.13;80.29
35989;BME280;22064;42.672;23.282;2023-02-21T09:21:26;94869.34;;;9.28;77.71
35989;BME280;22064;42.672;23.282;2023-02-21T09:23:54;94864.91;;;9.40;75.55
35989;BME280;22064;42.672;23.282;2023-02-21T09:26:21;94862.06;;;9.53;73.20
35989;BME280;22064;42.672;23.282;2023-02-21T09:28:49;94854.47;;;9.75;71.32
35989;BME280;22064;42.672;23.282;2023-02-21T09:31:15;94855.06;;;9.94;68.25
35989;BME280;22064;42.672;23.282;2023-02-21T09:33:43;94848.66;;;10.13;66.98
35989;BME280;22064;42.672;23.282;2023-02-21T09:36:09;94857.06;;;10.32;66.09
35989;BME280;22064;42.672;23.282;2023-02-21T09:38:35;94846.50;;;10.56;65.04
35989;BME280;22064;42.672;23.282;2023-02-21T09:41:05;94831.47;;;10.75;62.11
35989;BME280;22064;42.672;23.282;2023-02-21T09:43:35;94836.75;;;10.97;60.55
35989;BME280;22064;42.672;23.282;2023-02-21T09:46:11;94812.72;;;10.95;59.25
35989;BME280;22064;42.672;23.282;2023-02-21T09:48:40;94833.84;;;11.15;58.17
35989;BME280;22064;42.672;23.282;2023-02-21T09:51:08;94823.00;;;11.40;57.65
35989;BME280;22064;42.672;23.282;2023-02-21T09:53:38;94830.31;;;11.65;56.09
35989;BME280;22064;42.672;23.282;2023-02-21T09:56:10;94835.19;;;11.84;55.06
35989;BME280;22064;42.672;23.282;2023-02-21T09:58:42;94822.47;;;12.09;53.83
35989;BME280;22064;42.672;23.282;2023-02-21T10:19:54;94781.81;;;14.44;37.79
35989;BME280;22064;42.672;23.282;2023-02-21T10:22:27;94772.13;;;14.75;37.15
35989;BME280;22064;42.672;23.282;2023-02-21T10:24:53;94776.53;;;15.06;35.42
35989;BME280;22064;42.672;23.282;2023-02-21T10:27:26;94770.72;;;15.19;35.20
35989;BME280;22064;42.672;23.282;2023-02-21T10:29:56;94785.16;;;15.27;34.02
35989;BME280;22064;42.672;23.282;2023-02-21T10:32:25;94774.34;;;15.38;34.47
35989;BME280;22064;42.672;23.282;2023-02-21T10:34:51;94761.78;;;15.30;34.73
35989;BME280;22064;42.672;23.282;2023-02-21T10:42:51;94751.88;;;15.07;32.08
35989;BME280;22064;42.672;23.282;2023-02-21T10:45:23;94745.28;;;15.30;33.13
35989;BME280;22064;42.672;23.282;2023-02-21T10:48:09;94744.50;;;15.19;33.01
35989;BME280;22064;42.672;23.282;2023-02-21T10:53:32;94735.44;;;15.61;32.56
35989;BME280;22064;42.672;23.282;2023-02-21T10:58:35;94717.06;;;15.56;32.81
35989;BME280;22064;42.672;23.282;2023-02-21T11:01:17;94715.75;;;15.58;32.81
35989;BME280;22064;42.672;23.282;2023-02-21T11:03:48;94720.13;;;15.73;32.10
35989;BME280;22064;42.672;23.282;2023-02-21T11:06:34;94715.66;;;15.79;31.99
35989;BME280;22064;42.672;23.282;2023-02-21T11:09:02;94703.66;;;15.67;31.85
35989;BME280;22064;42.672;23.282;2023-02-21T11:11:47;94697.94;;;15.94;31.84
35989;BME280;22064;42.672;23.282;2023-02-21T11:16:42;94693.09;;;15.73;32.33
35989;BME280;22064;42.672;23.282;2023-02-21T11:19:11;94684.13;;;15.79;32.25
35989;BME280;22064;42.672;23.282;2023-02-21T11:21:38;94676.72;;;15.91;31.83
35989;BME280;22064;42.672;23.282;2023-02-21T11:24:06;94689.97;;;16.10;32.16
35989;BME280;22064;42.672;23.282;2023-02-21T11:26:44;94675.72;;;16.16;31.54
35989;BME280;22064;42.672;23.282;2023-02-21T11:29:13;94675.09;;;16.29;31.34
35989;BME280;22064;42.672;23.282;2023-02-21T11:31:40;94672.31;;;15.81;31.06
35989;BME280;22064;42.672;23.282;2023-02-21T11:34:09;94651.72;;;15.99;31.72
35989;BME280;22064;42.672;23.282;2023-02-21T11:36:41;94651.06;;;15.83;32.32
35989;BME280;22064;42.672;23.282;2023-02-21T11:39:29;94648.06;;;15.94;32.38
35989;BME280;22064;42.672;23.282;2023-02-21T11:44:40;94643.38;;;16.50;32.25
35989;BME280;22064;42.672;23.282;2023-02-21T11:47:20;94638.16;;;16.45;31.85
35989;BME280;22064;42.672;23.282;2023-02-21T11:50:03;94632.03;;;16.54;31.45
35989;BME280;22064;42.672;23.282;2023-02-21T11:52:48;94624.78;;;16.41;32.10
35989;BME280;22064;42.672;23.282;2023-02-21T11:55:22;94633.25;;;16.62;31.80
35989;BME280;22064;42.672;23.282;2023-02-21T11:58:16;94623.97;;;16.70;31.76
35989;BME280;22064;42.672;23.282;2023-02-21T12:00:50;94615.06;;;16.66;32.46
35989;BME280;22064;42.672;23.282;2023-02-21T12:06:46;94615.38;;;16.64;32.09
35989;BME280;22064;42.672;23.282;2023-02-21T12:15:05;94602.28;;;16.83;31.88
35989;BME280;22064;42.672;23.282;2023-02-21T12:21:10;94591.81;;;17.02;32.34
35989;BME280;22064;42.672;23.282;2023-02-21T12:23:36;94585.13;;;17.09;31.97
35989;BME280;22064;42.672;23.282;2023-02-21T12:31:58;94579.00;;;16.71;33.21
35989;BME280;22064;42.672;23.282;2023-02-21T12:37:36;94561.09;;;16.73;33.24
35989;BME280;22064;42.672;23.282;2023-02-21T12:40:03;94559.47;;;17.01;33.14
35989;BME280;22064;42.672;23.282;2023-02-21T12:45:43;94558.19;;;16.75;33.73
35989;BME280;22064;42.672;23.282;2023-02-21T12:48:34;94567.03;;;16.60;33.46
35989;BME280;22064;42.672;23.282;2023-02-21T12:51:07;94565.09;;;16.47;33.74
35989;BME280;22064;42.672;23.282;2023-02-21T12:53:42;94556.59;;;16.55;33.74
35989;BME280;22064;42.672;23.282;2023-02-21T12:56:16;94553.47;;;16.72;33.33
35989;BME280;22064;42.672;23.282;2023-02-21T12:58:48;94558.38;;;16.83;33.22
35989;BME280;22064;42.672;23.282;2023-02-21T13:01:20;94557.44;;;16.69;32.99
35989;BME280;22064;42.672;23.282;2023-02-21T13:06:56;94561.44;;;16.67;33.39
35989;BME280;22064;42.672;23.282;2023-02-21T13:09:34;94553.47;;;16.72;33.06
35989;BME280;22064;42.672;23.282;2023-02-21T13:12:15;94551.22;;;16.89;32.75
35989;BME280;22064;42.672;23.282;2023-02-21T13:17:15;94545.59;;;16.96;32.17
35989;BME280;22064;42.672;23.282;2023-02-21T13:20:03;94533.78;;;17.31;32.52
35989;BME280;22064;42.672;23.282;2023-02-21T13:28:27;94523.22;;;17.50;30.98
35989;BME280;22064;42.672;23.282;2023-02-21T13:30:59;94527.38;;;17.70;31.37
35989;BME280;22064;42.672;23.282;2023-02-21T13:33:39;94530.28;;;17.68;31.01
35989;BME280;22064;42.672;23.282;2023-02-21T13:36:38;94521.66;;;17.82;30.85
35989;BME280;22064;42.672;23.282;2023-02-21T13:41:47;94502.47;;;17.48;30.93
35989;BME280;22064;42.672;23.282;2023-02-21T13:44:24;94510.72;;;17.74;30.77
35989;BME280;22064;42.672;23.282;2023-02-21T13:57:38;94498.59;;;18.06;29.39
35989;BME280;22064;42.672;23.282;2023-02-21T14:21:15;94498.94;;;18.68;27.01
35989;BME280;22064;42.672;23.282;2023-02-21T14:26:53;94509.53;;;18.82;28.52
35989;BME280;22064;42.672;23.282;2023-02-21T14:32:15;94490.47;;;18.85;27.62
35989;BME280;22064;42.672;23.282;2023-02-21T14:37:34;94479.50;;;19.14;27.61
35989;BME280;22064;42.672;23.282;2023-02-21T14:40:16;94487.75;;;18.49;28.20
35989;BME280;22064;42.672;23.282;2023-02-21T14:43:19;94497.53;;;17.61;28.57
35989;BME280;22064;42.672;23.282;2023-02-21T14:51:28;94487.66;;;17.20;29.61
35989;BME280;22064;42.672;23.282;2023-02-21T14:54:20;94482.03;;;17.07;29.17
35989;BME280;22064;42.672;23.282;2023-02-21T15:05:11;94477.69;;;17.17;29.07
35989;BME280;22064;42.672;23.282;2023-02-21T15:10:31;94477.06;;;17.06;28.56
35989;BME280;22064;42.672;23.282;2023-02-21T15:13:00;94447.50;;;16.76;28.78
35989;BME280;22064;42.672;23.282;2023-02-21T15:15:37;94472.78;;;16.91;28.96
35989;BME280;22064;42.672;23.282;2023-02-21T15:18:11;94470.97;;;16.92;28.79
35989;BME280;22064;42.672;23.282;2023-02-21T15:20:39;94475.78;;;16.84;29.15
35989;BME280;22064;42.672;23.282;2023-02-21T15:25:35;94475.38;;;16.72;29.61
35989;BME280;22064;42.672;23.282;2023-02-21T15:28:03;94490.69;;;16.70;29.71
35989;BME280;22064;42.672;23.282;2023-02-21T15:30:34;94483.63;;;16.66;30.02
35989;BME280;22064;42.672;23.282;2023-02-21T15:33:12;94482.13;;;16.59;30.25
35989;BME280;22064;42.672;23.282;2023-02-21T15:35:42;94487.22;;;16.51;30.76
35989;BME280;22064;42.672;23.282;2023-02-21T15:38:21;94495.25;;;16.40;30.56
35989;BME280;22064;42.672;23.282;2023-02-21T15:40:53;94484.44;;;16.23;30.21
35989;BME280;22064;42.672;23.282;2023-02-21T15:43:47;94509.13;;;16.22;29.36
35989;BME280;22064;42.672;23.282;2023-02-21T15:46:22;94494.09;;;16.04;29.92
35989;BME280;22064;42.672;23.282;2023-02-21T15:48:50;94503.63;;;15.94;30.25
35989;BME280;22064;42.672;23.282;2023-02-21T15:51:18;94503.78;;;15.79;30.11
35989;BME280;22064;42.672;23.282;2023-02-21T15:54:07;94512.16;;;15.81;30.69
35989;BME280;22064;42.672;23.282;2023-02-21T15:56:34;94507.56;;;15.63;30.86
35989;BME280;22064;42.672;23.282;2023-02-21T16:01:36;94495.66;;;15.46;31.54
35989;BME280;22064;42.672;23.282;2023-02-21T16:04:22;94501.47;;;15.38;31.80